Time;durP1;ratioP1;P1;durP2;ratioP2;P2;SDS_P1;SDS_P2;PMS_P1;PMS_P2;Temp;Humidity;BMP_temperature;BMP_pressure;BME280_temperature;BME280_humidity;BME280_pressure;Samples;Min_cycle;Max_cycle;Signal;HPM_P1;HPM_P2
2022/11/23 00:02:02;;;;;;;84.70;33.80;;;;;;;2.01;87.30;99777.28;106635;1237;138650;-64
2022/11/23 00:04:28;;;;;;;102.00;35.20;;;;;;;1.99;87.61;99775.20;106823;1236;97732;-64
2022/11/23 00:06:53;;;;;;;88.20;34.90;;;;;;;2.00;87.60;99771.68;106792;1237;97657;-64
2022/11/23 00:09:18;;;;;;;83.60;33.40;;;;;;;2.00;87.44;99767.42;106761;1251;138860;-64
2022/11/23 00:11:44;;;;;;;93.70;33.60;;;;;;;2.00;87.46;99767.80;106795;1237;97777;-65
2022/11/23 00:14:09;;;;;;;92.40;35.10;;;;;;;1.98;87.62;99767.65;106683;1237;139823;-64
2022/11/23 00:16:35;;;;;;;89.40;34.90;;;;;;;1.97;87.49;99768.02;106890;1235;97733;-65
2022/11/23 00:19:01;;;;;;;90.40;34.20;;;;;;;1.97;87.55;99762.03;106846;1243;97625;-64
2022/11/23 00:21:29;;;;;;;98.10;35.80;;;;;;;1.96;87.49;99760.30;106659;1231;138593;-64
2022/11/23 00:23:55;;;;;;;102.00;38.20;;;;;;;1.94;87.43;99757.89;106854;1235;97732;-64
2022/11/23 00:26:20;;;;;;;93.40;34.50;;;;;;;1.96;87.63;99752.38;106804;1243;138813;-64
2022/11/23 00:28:47;;;;;;;109.80;38.90;;;;;;;1.97;87.65;99748.66;106766;1233;97748;-64
2022/11/23 00:31:17;;;;;;;86.80;35.90;;;;;;;1.95;87.41;99741.81;106717;1228;100133;-65
2022/11/23 00:33:51;;;;;;;87.90;36.30;;;;;;;1.94;87.49;99749.93;106671;1235;98072;-65
2022/11/23 00:36:17;;;;;;;94.70;34.40;;;;;;;1.96;87.53;99747.96;106826;1243;111046;-65
2022/11/23 00:38:43;;;;;;;96.10;36.70;;;;;;;1.96;87.48;99750.96;106718;1243;139849;-62
2022/11/23 00:41:15;;;;;;;94.60;36.00;;;;;;;1.94;87.55;99751.88;106865;1240;98549;-64
2022/11/23 00:43:41;;;;;;;93.70;34.80;;;;;;;1.93;87.46;99749.25;106817;1247;98200;-63
2022/11/23 00:46:11;;;;;;;95.70;35.10;;;;;;;1.91;87.45;99755.11;106824;1236;97691;-65
2022/11/23 00:48:37;;;;;;;99.90;36.80;;;;;;;1.89;87.54;99756.21;106858;1235;98370;-63
2022/11/23 00:51:05;;;;;;;89.20;34.10;;;;;;;1.91;87.47;99757.95;106653;1237;139775;-63
2022/11/23 00:53:30;;;;;;;91.20;33.70;;;;;;;1.91;87.53;99759.53;106763;1235;97639;-63
2022/11/23 00:55:56;;;;;;;89.10;34.60;;;;;;;1.89;87.75;99759.21;106796;1234;138164;-63
2022/11/23 00:58:23;;;;;;;94.40;33.70;;;;;;;1.90;87.62;99761.48;106944;1228;99936;-63
2022/11/23 01:00:48;;;;;;;89.00;35.30;;;;;;;1.91;87.54;99761.65;106835;1235;97584;-63
2022/11/23 01:03:15;;;;;;;100.20;35.80;;;;;;;1.92;87.55;99760.39;106996;1239;97642;-63
2022/11/23 01:05:41;;;;;;;91.50;35.60;;;;;;;1.93;87.50;99758.25;106902;1241;109449;-63
2022/11/23 01:08:07;;;;;;;91.10;35.30;;;;;;;1.95;87.68;99755.57;106761;1234;138213;-62
2022/11/23 01:10:32;;;;;;;102.70;35.10;;;;;;;1.94;87.60;99752.75;106887;1243;97574;-63
2022/11/23 01:12:58;;;;;;;97.70;35.70;;;;;;;1.94;87.59;99756.29;107065;1238;97640;-63
2022/11/23 01:15:24;;;;;;;95.00;35.70;;;;;;;1.93;87.65;99757.19;106822;1227;99249;-63
2022/11/23 01:17:49;;;;;;;95.50;34.30;;;;;;;1.95;87.74;99758.73;106974;1227;97723;-63
2022/11/23 01:20:15;;;;;;;96.30;36.00;;;;;;;1.96;87.84;99761.70;106765;1233;139249;-65
2022/11/23 01:22:40;;;;;;;92.70;37.60;;;;;;;1.95;87.65;99759.08;106945;1244;97629;-63
2022/11/23 01:25:07;;;;;;;91.10;34.10;;;;;;;1.94;87.66;99756.99;106851;1244;138468;-64
2022/11/23 01:27:32;;;;;;;95.00;34.30;;;;;;;1.93;87.65;99759.14;106811;1234;107441;-63
2022/11/23 01:29:58;;;;;;;94.80;35.20;;;;;;;1.91;87.54;99758.29;106777;1228;97695;-63
2022/11/23 01:32:23;;;;;;;85.70;34.00;;;;;;;1.89;87.62;99758.16;106754;1227;138024;-64
2022/11/23 01:34:49;;;;;;;91.50;35.10;;;;;;;1.87;87.68;99762.98;106755;1236;97748;-64
2022/11/23 01:37:14;;;;;;;93.70;34.60;;;;;;;1.85;87.59;99763.00;106701;1238;138881;-64
2022/11/23 01:39:39;;;;;;;96.80;36.10;;;;;;;1.85;87.66;99768.11;106790;1252;97617;-64
2022/11/23 01:42:07;;;;;;;90.60;37.30;;;;;;;1.85;87.73;99773.06;106806;1251;97631;-64
2022/11/23 01:44:35;;;;;;;93.60;35.90;;;;;;;1.85;87.73;99774.80;106717;1243;96889;-64
2022/11/23 01:47:06;;;;;;;101.10;36.40;;;;;;;1.85;87.75;99777.45;106710;1231;99161;-64
2022/11/23 01:49:49;;;;;;;100.40;36.50;;;;;;;1.85;87.72;99784.32;106633;1236;139217;-64
2022/11/23 01:52:23;;;;;;;92.00;34.30;;;;;;;1.87;87.60;99783.39;106922;1227;97599;-64
2022/11/23 01:54:54;;;;;;;96.00;34.00;;;;;;;1.89;87.73;99780.02;106882;1234;111690;-64
2022/11/23 01:57:28;;;;;;;88.00;32.10;;;;;;;1.88;87.71;99778.96;106847;1241;138102;-64
2022/11/23 01:59:54;;;;;;;99.10;36.90;;;;;;;1.85;87.66;99777.09;106820;1234;107708;-65
2022/11/23 02:02:20;;;;;;;87.40;33.40;;;;;;;1.86;87.71;99773.39;106861;1234;97701;-64
2022/11/23 02:04:48;;;;;;;101.90;36.90;;;;;;;1.86;87.92;99768.79;106971;1243;98016;-64
2022/11/23 02:07:15;;;;;;;101.90;36.60;;;;;;;1.87;87.83;99766.50;106718;1240;140253;-64
2022/11/23 02:09:42;;;;;;;92.70;34.60;;;;;;;1.87;87.77;99763.66;106893;1244;107391;-64
2022/11/23 02:12:13;;;;;;;92.50;35.80;;;;;;;1.89;87.67;99763.80;106983;1242;101394;-64
2022/11/23 02:14:40;;;;;;;94.50;36.70;;;;;;;1.87;87.59;99758.75;106761;1241;138369;-64
2022/11/23 02:17:07;;;;;;;91.90;34.10;;;;;;;1.85;87.78;99759.83;107007;1243;97823;-64
2022/11/23 02:19:51;;;;;;;88.90;34.30;;;;;;;1.85;87.80;99756.14;106860;1244;138626;-63
2022/11/23 02:22:27;;;;;;;99.90;36.00;;;;;;;1.83;87.71;99759.17;106904;1227;107780;-64
2022/11/23 02:24:54;;;;;;;90.80;36.50;;;;;;;1.81;87.81;99758.89;106897;1234;97666;-64
2022/11/23 02:27:20;;;;;;;96.80;35.00;;;;;;;1.80;87.80;99758.91;106792;1235;139538;-64
2022/11/23 02:29:46;;;;;;;99.40;35.40;;;;;;;1.81;87.82;99757.98;106864;1235;97690;-64
2022/11/23 02:32:19;;;;;;;94.80;36.30;;;;;;;1.81;87.82;99763.80;106941;1234;138381;-64
2022/11/23 02:34:45;;;;;;;100.50;36.10;;;;;;;1.81;87.79;99764.87;106781;1227;97934;-64
2022/11/23 02:37:10;;;;;;;99.50;34.50;;;;;;;1.79;87.88;99767.36;106763;1227;139318;-64
2022/11/23 02:39:43;;;;;;;85.60;33.80;;;;;;;1.78;87.68;99770.05;106959;1227;97723;-63
2022/11/23 02:42:09;;;;;;;101.50;35.20;;;;;;;1.78;87.81;99771.80;106918;1237;106080;-64
2022/11/23 02:45:07;;;;;;;96.30;35.80;;;;;;;1.78;87.86;99772.52;106763;1235;138722;-63
2022/11/23 02:47:33;;;;;;;93.20;33.80;;;;;;;1.78;87.93;99774.98;106822;1234;97713;-63
2022/11/23 02:49:58;;;;;;;97.60;36.40;;;;;;;1.78;87.93;99779.54;106710;1234;138191;-63
2022/11/23 02:52:23;;;;;;;107.40;38.40;;;;;;;1.80;87.89;99776.34;106872;1235;97630;-63
2022/11/23 02:54:48;;;;;;;104.90;38.40;;;;;;;1.82;87.97;99775.77;106754;1244;97837;-63
2022/11/23 02:57:14;;;;;;;98.50;34.60;;;;;;;1.81;87.77;99772.08;106866;1243;138529;-63
2022/11/23 02:59:39;;;;;;;96.00;37.20;;;;;;;1.79;87.96;99774.59;106930;1227;97705;-63
2022/11/23 03:02:05;;;;;;;95.10;34.90;;;;;;;1.80;87.77;99769.81;106722;1227;139411;-64
2022/11/23 03:04:30;;;;;;;98.20;37.10;;;;;;;1.78;87.76;99767.74;106910;1231;97373;-63
2022/11/23 03:06:56;;;;;;;95.70;35.30;;;;;;;1.76;87.75;99769.73;106896;1235;97678;-64
2022/11/23 03:09:22;;;;;;;99.90;37.00;;;;;;;1.74;87.74;99769.94;106671;1236;139657;-63
2022/11/23 03:11:47;;;;;;;101.10;37.20;;;;;;;1.71;87.65;99771.07;106787;1233;98060;-63
2022/11/23 03:14:12;;;;;;;102.40;37.00;;;;;;;1.67;87.66;99769.03;106753;1245;97717;-64
2022/11/23 03:16:38;;;;;;;112.20;39.00;;;;;;;1.66;87.93;99774.71;106729;1236;99359;-64
2022/11/23 03:19:03;;;;;;;105.10;37.40;;;;;;;1.64;87.80;99773.50;106696;1246;97731;-63
2022/11/23 03:21:28;;;;;;;108.40;37.70;;;;;;;1.63;87.89;99779.52;106765;1256;138270;-63
2022/11/23 03:23:54;;;;;;;109.70;40.10;;;;;;;1.62;87.97;99780.76;106785;1229;97845;-63
2022/11/23 03:26:20;;;;;;;99.60;36.70;;;;;;;1.62;87.84;99781.11;106758;1252;139124;-64
2022/11/23 03:28:45;;;;;;;112.30;37.10;;;;;;;1.59;87.82;99782.40;106805;1236;98916;-63
2022/11/23 03:31:10;;;;;;;95.10;34.30;;;;;;;1.59;87.92;99778.19;106475;1236;138549;-64
2022/11/23 03:33:36;;;;;;;95.80;36.30;;;;;;;1.56;87.85;99777.55;106801;1236;97597;-64
2022/11/23 03:36:01;;;;;;;104.90;37.10;;;;;;;1.55;87.80;99773.50;106626;1229;107745;-63
2022/11/23 03:38:27;;;;;;;96.60;34.80;;;;;;;1.55;87.87;99774.56;106581;1236;140640;-64
2022/11/23 03:40:52;;;;;;;95.40;34.60;;;;;;;1.55;87.79;99780.02;106808;1251;98038;-63
2022/11/23 03:43:18;;;;;;;100.90;37.30;;;;;;;1.55;87.94;99780.73;106645;1233;140344;-63
2022/11/23 03:45:44;;;;;;;95.10;37.90;;;;;;;1.54;87.94;99784.79;106740;1230;97630;-63
2022/11/23 03:48:09;;;;;;;100.90;38.30;;;;;;;1.55;87.85;99782.13;106885;1243;97708;-63
2022/11/23 03:50:35;;;;;;;91.80;35.00;;;;;;;1.55;87.97;99777.21;106667;1243;139208;-63
2022/11/23 03:53:01;;;;;;;94.20;35.80;;;;;;;1.56;87.97;99779.31;106930;1246;97728;-62
2022/11/23 03:55:26;;;;;;;95.40;35.00;;;;;;;1.56;88.06;99781.77;106918;1235;139410;-63
2022/11/23 03:57:54;;;;;;;91.30;34.70;;;;;;;1.56;87.90;99783.17;106904;1244;97640;-63
2022/11/23 04:00:19;;;;;;;96.60;35.20;;;;;;;1.53;87.83;99789.58;106922;1243;98507;-63
2022/11/23 04:02:45;;;;;;;94.60;34.90;;;;;;;1.51;87.86;99800.36;106784;1231;138592;-63
2022/11/23 04:05:10;;;;;;;90.00;33.10;;;;;;;1.50;87.81;99798.61;106811;1234;97623;-63
2022/11/23 04:07:36;;;;;;;99.30;36.60;;;;;;;1.47;87.79;99799.55;106792;1235;139262;-63
2022/11/23 04:10:01;;;;;;;95.00;36.00;;;;;;;1.48;87.92;99798.31;106960;1244;97988;-62
2022/11/23 04:12:26;;;;;;;97.70;34.10;;;;;;;1.48;87.94;99794.77;106929;1244;97615;-63
2022/11/23 04:14:52;;;;;;;100.90;36.20;;;;;;;1.50;87.98;99790.70;106793;1235;139011;-63
2022/11/23 04:17:17;;;;;;;95.20;35.10;;;;;;;1.50;87.88;99786.30;106926;1243;97715;-62
2022/11/23 04:19:43;;;;;;;98.10;33.80;;;;;;;1.48;87.72;99780.35;106737;1235;138595;-62
2022/11/23 04:22:08;;;;;;;91.40;32.60;;;;;;;1.47;87.79;99782.48;106951;1244;97737;-62
2022/11/23 04:24:33;;;;;;;98.70;35.70;;;;;;;1.42;87.71;99776.43;106905;1244;97722;-62
2022/11/23 04:26:59;;;;;;;99.80;35.40;;;;;;;1.38;87.80;99780.20;106878;1244;138803;-62
2022/11/23 04:29:24;;;;;;;107.30;39.20;;;;;;;1.39;88.00;99788.98;106855;1235;99014;-62
2022/11/23 04:31:49;;;;;;;107.00;36.90;;;;;;;1.39;87.96;99789.50;106832;1234;140209;-63
2022/11/23 04:34:15;;;;;;;107.60;38.30;;;;;;;1.39;87.84;99795.67;106903;1227;111483;-63
2022/11/23 04:36:40;;;;;;;109.20;38.20;;;;;;;1.39;87.83;99799.55;106908;1227;97838;-62
2022/11/23 04:39:06;;;;;;;106.70;35.60;;;;;;;1.39;88.00;99801.48;106732;1235;138931;-63
2022/11/23 04:41:32;;;;;;;102.30;37.90;;;;;;;1.41;88.03;99802.16;106935;1234;97730;-62
2022/11/23 04:43:57;;;;;;;98.60;35.40;;;;;;;1.41;87.76;99796.52;106847;1249;139969;-63
2022/11/23 04:46:22;;;;;;;100.70;36.30;;;;;;;1.41;87.80;99796.69;106931;1243;97678;-63
2022/11/23 04:48:48;;;;;;;109.00;36.80;;;;;;;1.40;87.85;99805.15;106791;1235;97747;-63
2022/11/23 04:51:13;;;;;;;103.30;35.70;;;;;;;1.40;87.91;99800.59;106800;1234;139980;-63
2022/11/23 04:53:39;;;;;;;113.80;38.50;;;;;;;1.38;87.96;99802.38;106861;1237;99295;-65
2022/11/23 04:56:05;;;;;;;102.10;36.30;;;;;;;1.37;87.79;99804.34;107352;1231;139131;-63
2022/11/23 04:58:30;;;;;;;113.10;37.20;;;;;;;1.35;88.00;99803.69;106870;1235;99064;-63
2022/11/23 05:00:57;;;;;;;103.10;34.80;;;;;;;1.33;87.84;99802.65;106884;1244;97746;-63
2022/11/23 05:03:23;;;;;;;110.60;36.90;;;;;;;1.28;87.88;99801.17;106835;1228;138366;-63
2022/11/23 05:05:48;;;;;;;98.20;33.90;;;;;;;1.25;87.83;99797.34;106825;1235;97738;-62
2022/11/23 05:08:13;;;;;;;113.00;37.80;;;;;;;1.21;87.85;99797.95;106852;1240;139418;-65
2022/11/23 05:10:39;;;;;;;107.40;35.60;;;;;;;1.21;88.00;99799.54;106914;1243;97620;-62
2022/11/23 05:13:04;;;;;;;102.30;35.60;;;;;;;1.21;87.80;99800.60;106876;1237;97658;-63
2022/11/23 05:15:30;;;;;;;104.80;35.10;;;;;;;1.18;87.78;99802.59;106871;1227;97678;-63
2022/11/23 05:18:06;;;;;;;115.60;38.70;;;;;;;1.15;87.78;99812.15;106916;1236;96528;-63
2022/11/23 05:20:33;;;;;;;107.40;34.90;;;;;;;1.15;87.89;99817.95;106782;1244;139080;-63
2022/11/23 05:22:58;;;;;;;115.20;37.00;;;;;;;1.15;87.92;99819.89;106926;1235;100545;-63
2022/11/23 05:25:25;;;;;;;103.50;36.10;;;;;;;1.16;87.86;99823.56;106704;1227;139408;-63
2022/11/23 05:27:50;;;;;;;118.90;39.40;;;;;;;1.16;87.96;99823.56;106934;1235;97716;-63
2022/11/23 05:30:16;;;;;;;119.60;37.10;;;;;;;1.16;88.01;99827.26;106858;1234;99087;-63
2022/11/23 05:32:41;;;;;;;115.30;37.20;;;;;;;1.16;87.99;99827.08;106778;1237;139225;-63
2022/11/23 05:35:07;;;;;;;112.10;37.00;;;;;;;1.11;88.06;99821.36;106923;1249;97589;-63
2022/11/23 05:37:33;;;;;;;110.00;36.40;;;;;;;1.08;87.93;99820.55;106783;1236;139894;-63
2022/11/23 05:39:59;;;;;;;125.30;38.40;;;;;;;1.08;88.08;99817.58;106845;1230;97701;-63
2022/11/23 05:42:24;;;;;;;113.80;38.70;;;;;;;1.07;87.98;99820.22;106915;1234;97710;-63
2022/11/23 05:44:49;;;;;;;100.60;34.40;;;;;;;1.04;87.98;99822.38;106749;1237;138472;-63
2022/11/23 05:47:15;;;;;;;117.60;37.90;;;;;;;1.01;87.83;99823.30;106984;1235;97639;-63
2022/11/23 05:49:40;;;;;;;97.80;34.20;;;;;;;0.99;88.04;99824.23;106772;1237;138992;-63
2022/11/23 05:52:05;;;;;;;103.20;34.50;;;;;;;1.02;88.10;99824.01;106866;1236;97752;-63
2022/11/23 05:54:31;;;;;;;113.20;35.90;;;;;;;1.00;88.00;99819.64;106969;1237;97750;-63
2022/11/23 05:56:56;;;;;;;114.60;36.60;;;;;;;0.97;87.99;99818.44;106696;1240;139969;-63
2022/11/23 05:59:21;;;;;;;109.20;37.20;;;;;;;0.99;88.15;99820.19;106928;1235;99106;-63
2022/11/23 06:01:46;;;;;;;101.40;34.70;;;;;;;0.99;88.15;99824.57;106776;1234;97698;-63
2022/11/23 06:04:12;;;;;;;111.50;37.10;;;;;;;0.99;88.15;99826.15;106979;1244;97700;-63
2022/11/23 06:06:37;;;;;;;101.80;35.00;;;;;;;1.00;88.05;99825.09;106921;1250;99941;-63
2022/11/23 06:09:03;;;;;;;109.30;35.50;;;;;;;1.00;88.23;99826.50;106726;1236;139049;-62
2022/11/23 06:11:30;;;;;;;105.80;35.40;;;;;;;1.00;88.23;99829.13;106907;1235;96514;-62
2022/11/23 06:13:55;;;;;;;108.90;35.80;;;;;;;0.96;88.02;99833.06;106656;1229;138459;-63
2022/11/23 06:16:20;;;;;;;102.10;35.10;;;;;;;0.96;88.16;99839.40;106906;1235;97798;-65
2022/11/23 06:18:46;;;;;;;99.30;34.20;;;;;;;0.99;88.11;99841.11;107135;1237;97636;-62
2022/11/23 06:21:11;;;;;;;109.10;36.30;;;;;;;0.97;88.31;99847.29;106658;1250;138391;-62
2022/11/23 06:23:36;;;;;;;110.40;34.80;;;;;;;1.00;88.24;99848.31;106822;1244;97677;-63
2022/11/23 06:26:02;;;;;;;104.10;35.40;;;;;;;1.00;88.32;99850.25;106578;1236;139517;-63
2022/11/23 06:28:28;;;;;;;103.70;36.20;;;;;;;1.01;88.37;99856.91;106771;1236;97702;-63
2022/11/23 06:30:54;;;;;;;110.70;36.10;;;;;;;1.00;88.25;99860.63;106729;1233;99763;-63
2022/11/23 06:33:20;;;;;;;104.80;35.10;;;;;;;0.98;88.33;99866.46;106535;1229;139079;-63
2022/11/23 06:35:54;;;;;;;103.80;36.30;;;;;;;0.99;88.32;99867.50;106555;1233;98086;-64
2022/11/23 06:38:19;;;;;;;104.00;35.00;;;;;;;1.01;88.40;99863.59;107148;1236;139119;-63
2022/11/23 06:40:45;;;;;;;102.00;34.10;;;;;;;1.01;88.44;99861.84;107257;1244;96582;-63
2022/11/23 06:43:10;;;;;;;104.70;34.50;;;;;;;1.01;88.59;99869.93;106835;1244;138899;-63
2022/11/23 06:45:35;;;;;;;111.60;36.90;;;;;;;1.01;88.41;99873.09;106772;1235;97926;-63
2022/11/23 06:48:01;;;;;;;106.90;36.40;;;;;;;1.01;88.40;99876.61;106800;1244;97815;-62
2022/11/23 06:50:26;;;;;;;101.70;32.70;;;;;;;1.00;88.32;99886.13;106592;1248;138617;-63
2022/11/23 06:52:56;;;;;;;113.30;38.30;;;;;;;0.99;88.35;99884.20;106770;1235;98763;-64
2022/11/23 06:55:23;;;;;;;101.70;33.20;;;;;;;1.01;88.54;99887.17;106585;1243;139173;-63
2022/11/23 06:57:49;;;;;;;104.70;35.70;;;;;;;1.03;88.42;99881.33;106789;1243;97689;-64
2022/11/23 07:00:15;;;;;;;101.40;33.80;;;;;;;1.03;88.57;99878.33;107175;1243;97736;-65
2022/11/23 07:02:40;;;;;;;99.90;36.40;;;;;;;1.02;88.50;99880.80;106773;1231;138931;-62
2022/11/23 07:05:06;;;;;;;111.30;36.30;;;;;;;1.02;88.52;99881.69;106806;1235;97665;-64
2022/11/23 07:07:32;;;;;;;102.00;34.50;;;;;;;1.04;88.63;99884.48;106689;1228;141036;-65
2022/11/23 07:09:57;;;;;;;104.70;33.80;;;;;;;1.08;88.66;99886.52;107291;1235;96527;-62
2022/11/23 07:12:22;;;;;;;98.30;32.60;;;;;;;1.09;88.57;99885.27;106874;1227;97691;-65
2022/11/23 07:14:48;;;;;;;107.00;36.80;;;;;;;1.08;88.53;99883.71;106794;1235;139528;-64
2022/11/23 07:17:13;;;;;;;96.70;34.10;;;;;;;1.09;88.64;99884.57;106744;1242;97750;-65
2022/11/23 07:19:38;;;;;;;109.70;36.40;;;;;;;1.12;88.56;99879.95;107530;1234;139036;-65
2022/11/23 07:22:04;;;;;;;111.30;36.50;;;;;;;1.16;88.81;99879.52;107648;1250;96534;-64
2022/11/23 07:24:29;;;;;;;100.80;34.90;;;;;;;1.20;88.81;99882.44;107554;1244;97696;-65
2022/11/23 07:26:54;;;;;;;97.60;33.20;;;;;;;1.22;88.91;99876.95;107317;1250;97488;-64
2022/11/23 07:29:20;;;;;;;99.60;34.50;;;;;;;1.24;88.72;99881.83;107640;1231;97700;-64
2022/11/23 07:31:45;;;;;;;100.80;33.20;;;;;;;1.27;88.95;99880.38;107497;1243;138818;-64
2022/11/23 07:34:10;;;;;;;103.00;33.70;;;;;;;1.30;88.96;99880.14;107562;1235;97619;-63
2022/11/23 07:36:36;;;;;;;111.40;36.30;;;;;;;1.36;88.99;99882.86;107451;1240;97492;-63
2022/11/23 07:39:02;;;;;;;96.90;34.00;;;;;;;1.40;89.02;99887.02;107263;1237;138763;-63
2022/11/23 07:41:27;;;;;;;105.20;34.50;;;;;;;1.40;88.82;99889.83;107310;1235;97754;-63
2022/11/23 07:43:53;;;;;;;86.60;31.70;;;;;;;1.40;88.99;99892.28;106791;1243;139179;-63
2022/11/23 07:46:18;;;;;;;110.30;34.70;;;;;;;1.43;88.88;99893.82;107161;1251;98414;-63
2022/11/23 07:48:43;;;;;;;97.90;30.20;;;;;;;1.46;88.94;99891.83;106865;1244;97711;-63
2022/11/23 07:51:09;;;;;;;103.70;33.00;;;;;;;1.48;88.87;99889.30;106715;1248;139082;-62
2022/11/23 07:53:35;;;;;;;102.10;35.40;;;;;;;1.49;88.95;99895.46;106766;1234;97796;-63
2022/11/23 07:56:00;;;;;;;110.40;35.60;;;;;;;1.49;88.97;99897.23;106402;1227;138627;-64
2022/11/23 07:58:26;;;;;;;111.70;35.50;;;;;;;1.52;89.06;99901.93;106786;1235;97746;-64
2022/11/23 08:00:52;;;;;;;91.00;32.80;;;;;;;1.54;89.28;99905.41;107513;1231;96503;-65
2022/11/23 08:03:17;;;;;;;104.60;33.30;;;;;;;1.54;89.13;99906.47;107280;1243;140381;-64
2022/11/23 08:05:42;;;;;;;138.40;35.40;;;;;;;1.56;89.03;99904.50;107507;1229;96469;-64
2022/11/23 08:08:08;;;;;;;115.10;33.90;;;;;;;1.57;89.13;99901.30;107425;1236;97606;-64
2022/11/23 08:10:33;;;;;;;119.10;36.30;;;;;;;1.60;89.31;99902.30;107488;1246;98598;-64
2022/11/23 08:13:00;;;;;;;121.50;37.80;;;;;;;1.65;89.31;99900.62;107439;1237;99539;-64
2022/11/23 08:15:29;;;;;;;102.60;34.50;;;;;;;1.70;89.38;99905.27;107377;1234;138374;-64
2022/11/23 08:17:56;;;;;;;159.00;35.80;;;;;;;1.75;89.42;99903.60;107330;1247;98002;-64
2022/11/23 08:20:21;;;;;;;119.00;35.70;;;;;;;1.76;89.25;99905.18;106849;1231;138387;-64
2022/11/23 08:22:47;;;;;;;179.50;40.70;;;;;;;1.75;89.21;99903.78;107419;1234;97575;-65
2022/11/23 08:25:14;;;;;;;118.80;36.30;;;;;;;1.80;89.34;99905.80;107117;1240;138508;-63
2022/11/23 08:27:39;;;;;;;108.80;33.10;;;;;;;1.82;89.22;99903.63;106877;1236;97634;-63
2022/11/23 08:30:05;;;;;;;110.60;35.60;;;;;;;1.85;89.48;99900.40;106786;1235;97666;-63
2022/11/23 08:32:30;;;;;;;95.20;33.80;;;;;;;1.85;89.17;99901.45;107214;1227;98297;-63
2022/11/23 08:34:56;;;;;;;98.10;35.20;;;;;;;1.86;89.09;99899.14;106832;1235;97725;-63
2022/11/23 08:37:21;;;;;;;100.70;35.60;;;;;;;1.87;89.35;99898.61;106710;1236;139070;-63
2022/11/23 08:39:46;;;;;;;105.90;35.10;;;;;;;1.88;89.34;99896.12;106847;1227;98739;-64
2022/11/23 08:42:11;;;;;;;102.60;34.80;;;;;;;1.90;89.49;99898.01;107501;1235;97671;-64
2022/11/23 08:44:37;;;;;;;102.50;36.10;;;;;;;1.92;89.38;99906.09;107379;1244;139209;-64
2022/11/23 08:47:02;;;;;;;99.10;32.90;;;;;;;1.95;89.38;99909.20;106966;1250;97674;-64
2022/11/23 08:49:27;;;;;;;104.60;36.60;;;;;;;1.98;89.49;99916.02;106802;1242;140698;-64
2022/11/23 08:51:53;;;;;;;98.80;35.00;;;;;;;1.98;89.40;99916.35;106809;1235;97835;-64
2022/11/23 08:54:19;;;;;;;100.00;34.50;;;;;;;2.01;89.45;99919.11;106903;1250;97946;-63
2022/11/23 08:56:47;;;;;;;93.30;34.50;;;;;;;2.02;89.18;99916.10;106774;1234;138538;-64
2022/11/23 08:59:12;;;;;;;89.50;31.10;;;;;;;2.01;89.38;99918.94;107054;1234;98581;-64
2022/11/23 09:01:37;;;;;;;100.70;34.10;;;;;;;2.00;89.27;99915.63;106751;1244;138949;-63
2022/11/23 09:04:03;;;;;;;100.60;34.80;;;;;;;2.01;89.35;99916.12;106844;1241;99117;-64
2022/11/23 09:06:32;;;;;;;101.30;36.90;;;;;;;2.04;89.44;99916.23;106830;1234;97707;-63
2022/11/23 09:08:57;;;;;;;106.80;36.10;;;;;;;2.06;89.51;99916.91;106692;1227;139191;-64
2022/11/23 09:11:24;;;;;;;107.80;37.70;;;;;;;2.09;89.45;99922.83;106840;1235;97734;-64
2022/11/23 09:13:49;;;;;;;105.60;37.30;;;;;;;2.10;89.50;99922.45;106756;1235;140157;-64
2022/11/23 09:16:15;;;;;;;117.60;41.60;;;;;;;2.08;89.48;99920.91;106851;1228;111190;-65
2022/11/23 09:18:40;;;;;;;114.90;37.10;;;;;;;2.11;89.38;99916.63;106869;1244;97615;-63
2022/11/23 09:21:05;;;;;;;105.20;35.90;;;;;;;2.11;89.53;99917.14;106788;1227;138450;-64
2022/11/23 09:23:31;;;;;;;108.00;37.20;;;;;;;2.11;89.26;99917.86;106864;1244;97721;-63
2022/11/23 09:26:00;;;;;;;116.50;39.20;;;;;;;2.12;89.59;99916.77;106767;1240;99204;-63
2022/11/23 09:28:27;;;;;;;116.40;37.50;;;;;;;2.15;89.54;99915.13;107011;1234;108089;-64
2022/11/23 09:30:53;;;;;;;113.10;38.00;;;;;;;2.19;89.47;99918.38;107129;1235;98214;-64
2022/11/23 09:33:18;;;;;;;96.30;35.10;;;;;;;2.23;89.47;99916.54;107303;1241;141370;-65
2022/11/23 09:35:43;;;;;;;98.90;35.10;;;;;;;2.22;89.36;99913.58;107465;1236;97722;-65
2022/11/23 09:38:09;;;;;;;109.20;37.30;;;;;;;2.21;89.38;99913.75;107306;1227;139387;-64
2022/11/23 09:40:39;;;;;;;106.50;38.40;;;;;;;2.21;89.47;99914.82;107536;1247;97698;-65
2022/11/23 09:43:26;;;;;;;102.40;36.00;;;;;;;2.23;89.40;99913.37;107441;1250;111234;-64
2022/11/23 09:45:54;;;;;;;111.00;37.30;;;;;;;2.26;89.73;99911.55;107483;1235;99204;-64
2022/11/23 09:48:53;;;;;;;104.50;34.80;;;;;;;2.29;89.52;99915.70;107897;1244;107383;-64
2022/11/23 09:51:22;;;;;;;104.10;35.80;;;;;;;2.34;89.69;99910.48;107491;1234;97661;-64
2022/11/23 09:53:52;;;;;;;101.10;36.30;;;;;;;2.38;89.69;99908.65;107648;1233;97993;-64
2022/11/23 09:56:31;;;;;;;97.20;31.20;;;;;;;2.41;89.72;99903.46;107493;1243;138463;-64
2022/11/23 09:58:59;;;;;;;123.50;39.00;;;;;;;2.43;89.54;99903.42;107608;1244;98478;-65
2022/11/23 10:01:31;;;;;;;109.90;36.90;;;;;;;2.45;89.61;99902.14;107444;1235;138900;-64
2022/11/23 10:03:57;;;;;;;94.30;32.30;;;;;;;2.47;89.31;99900.69;107454;1244;97656;-64
2022/11/23 10:06:28;;;;;;;112.10;37.50;;;;;;;2.40;89.37;99897.30;107553;1245;98236;-64
2022/11/23 10:09:20;;;;;;;;;;;;;;;2.41;89.50;99896.06;107389;1235;138468;-64
2022/11/23 10:12:05;;;;;;;108.90;36.70;;;;;;;2.46;89.66;99894.70;107514;1234;97901;-64
2022/11/23 10:14:55;;;;;;;105.70;36.60;;;;;;;2.48;89.51;99891.33;107395;1251;139131;-64
2022/11/23 10:17:40;;;;;;;103.90;35.70;;;;;;;2.47;89.45;99890.63;107474;1234;98909;-64
2022/11/23 10:20:28;;;;;;;111.40;36.00;;;;;;;2.50;89.59;99890.73;107448;1249;97775;-65
2022/11/23 10:23:01;;;;;;;102.00;34.80;;;;;;;2.55;89.66;99894.14;107483;1237;111212;-65
2022/11/23 10:25:33;;;;;;;114.90;39.80;;;;;;;2.59;89.62;99889.28;107347;1251;141272;-65
2022/11/23 10:28:05;;;;;;;108.30;36.70;;;;;;;2.61;89.55;99882.19;107482;1235;107962;-64
2022/11/23 10:30:31;;;;;;;113.70;40.00;;;;;;;2.60;89.52;99880.79;107502;1244;97801;-65
2022/11/23 10:33:00;;;;;;;123.80;39.00;;;;;;;2.66;89.65;99879.58;107359;1235;138542;-65
2022/11/23 10:35:34;;;;;;;126.60;38.50;;;;;;;2.70;89.61;99885.66;107461;1249;110876;-65
2022/11/23 10:38:13;;;;;;;102.30;38.60;;;;;;;2.72;89.63;99883.48;107450;1250;100515;-64
2022/11/23 10:40:45;;;;;;;107.20;36.00;;;;;;;2.71;89.38;99884.57;107500;1234;108004;-64
2022/11/23 10:43:19;;;;;;;105.20;36.40;;;;;;;2.69;89.47;99879.34;107461;1235;97597;-64
2022/11/23 10:45:45;;;;;;;101.50;37.80;;;;;;;2.66;89.59;99880.98;107477;1235;97685;-64
2022/11/23 10:48:10;;;;;;;96.60;34.70;;;;;;;2.64;89.37;99878.40;107399;1244;97696;-63
2022/11/23 10:50:39;;;;;;;105.70;37.30;;;;;;;2.59;89.31;99878.89;107265;1243;138811;-64
2022/11/23 10:53:04;;;;;;;108.80;37.70;;;;;;;2.56;89.27;99880.02;107250;1236;97075;-64
2022/11/23 10:55:33;;;;;;;104.90;35.40;;;;;;;2.55;89.48;99879.16;107301;1237;98892;-64
2022/11/23 10:57:59;;;;;;;101.70;34.20;;;;;;;2.53;89.47;99882.57;107306;1243;97410;-65
2022/11/23 11:00:27;;;;;;;104.00;35.80;;;;;;;2.49;89.31;99883.16;107323;1236;97826;-63
2022/11/23 11:02:55;;;;;;;96.90;34.50;;;;;;;2.48;89.43;99879.50;107242;1240;139695;-64
2022/11/23 11:05:35;;;;;;;99.10;34.30;;;;;;;2.44;89.24;99881.02;107384;1244;97680;-63
2022/11/23 11:08:21;;;;;;;103.50;36.60;;;;;;;2.43;89.27;99875.56;107238;1243;138310;-64
2022/11/23 11:11:06;;;;;;;107.00;37.70;;;;;;;2.44;89.36;99871.83;107253;1235;110936;-64